sensor_id;sensor_type;location;lat;lon;timestamp;P1;durP1;ratioP1;P2;durP2;ratioP2
70126;SDS011;57491;42.694;23.314;2023-11-19T00:00:23;4.10;;;2.67;;
70126;SDS011;57491;42.694;23.314;2023-11-19T00:02:51;2.88;;;2.55;;
70126;SDS011;57491;42.694;23.314;2023-11-19T00:05:18;3.60;;;2.88;;
70126;SDS011;57491;42.694;23.314;2023-11-19T00:07:46;4.43;;;2.90;;
70126;SDS011;57491;42.694;23.314;2023-11-19T00:10:13;2.92;;;2.63;;
70126;SDS011;57491;42.694;23.314;2023-11-19T00:12:44;3.22;;;2.47;;
70126;SDS011;57491;42.694;23.314;2023-11-19T00:15:13;3.83;;;2.92;;
70126;SDS011;57491;42.694;23.314;2023-11-19T00:17:42;4.57;;;3.03;;
70126;SDS011;57491;42.694;23.314;2023-11-19T00:20:11;4.30;;;2.92;;
70126;SDS011;57491;42.694;23.314;2023-11-19T00:25:07;4.63;;;2.90;;
70126;SDS011;57491;42.694;23.314;2023-11-19T00:27:35;2.65;;;2.22;;
70126;SDS011;57491;42.694;23.314;2023-11-19T00:30:04;3.05;;;2.75;;
70126;SDS011;57491;42.694;23.314;2023-11-19T00:32:32;4.32;;;3.30;;
70126;SDS011;57491;42.694;23.314;2023-11-19T00:35:01;3.43;;;2.77;;
70126;SDS011;57491;42.694;23.314;2023-11-19T00:37:28;3.67;;;2.90;;
70126;SDS011;57491;42.694;23.314;2023-11-19T00:39:56;4.43;;;3.22;;
70126;SDS011;57491;42.694;23.314;2023-11-19T00:42:23;3.47;;;2.85;;
70126;SDS011;57491;42.694;23.314;2023-11-19T00:44:52;3.33;;;2.58;;
70126;SDS011;57491;42.694;23.314;2023-11-19T00:47:19;3.47;;;3.10;;
70126;SDS011;57491;42.694;23.314;2023-11-19T00:49:46;4.30;;;2.87;;
70126;SDS011;57491;42.694;23.314;2023-11-19T00:52:16;4.22;;;2.72;;
70126;SDS011;57491;42.694;23.314;2023-11-19T00:54:44;4.53;;;3.25;;
70126;SDS011;57491;42.694;23.314;2023-11-19T00:57:12;3.78;;;2.70;;
70126;SDS011;57491;42.694;23.314;2023-11-19T00:59:41;4.65;;;3.22;;
70126;SDS011;57491;42.694;23.314;2023-11-19T01:02:09;4.13;;;3.33;;
70126;SDS011;57491;42.694;23.314;2023-11-19T01:04:36;3.42;;;2.85;;
70126;SDS011;57491;42.694;23.314;2023-11-19T01:07:04;3.55;;;2.85;;
70126;SDS011;57491;42.694;23.314;2023-11-19T01:09:33;2.75;;;2.42;;
70126;SDS011;57491;42.694;23.314;2023-11-19T01:12:00;3.05;;;2.50;;
70126;SDS011;57491;42.694;23.314;2023-11-19T01:14:28;3.08;;;2.78;;
70126;SDS011;57491;42.694;23.314;2023-11-19T01:16:56;3.65;;;2.78;;
70126;SDS011;57491;42.694;23.314;2023-11-19T01:19:23;3.22;;;2.55;;
70126;SDS011;57491;42.694;23.314;2023-11-19T01:21:51;3.10;;;2.53;;
70126;SDS011;57491;42.694;23.314;2023-11-19T01:24:19;3.08;;;2.60;;
70126;SDS011;57491;42.694;23.314;2023-11-19T01:26:47;3.28;;;2.83;;
70126;SDS011;57491;42.694;23.314;2023-11-19T01:29:15;2.80;;;2.58;;
70126;SDS011;57491;42.694;23.314;2023-11-19T01:31:42;3.20;;;2.85;;
70126;SDS011;57491;42.694;23.314;2023-11-19T01:34:12;3.47;;;2.53;;
70126;SDS011;57491;42.694;23.314;2023-11-19T01:36:39;2.90;;;2.55;;
70126;SDS011;57491;42.694;23.314;2023-11-19T01:39:07;3.22;;;2.65;;
70126;SDS011;57491;42.694;23.314;2023-11-19T01:41:34;4.03;;;3.00;;
70126;SDS011;57491;42.694;23.314;2023-11-19T01:44:04;3.53;;;2.65;;
70126;SDS011;57491;42.694;23.314;2023-11-19T01:46:32;2.53;;;2.33;;
70126;SDS011;57491;42.694;23.314;2023-11-19T01:49:01;4.45;;;3.03;;
70126;SDS011;57491;42.694;23.314;2023-11-19T01:51:29;3.05;;;2.50;;
70126;SDS011;57491;42.694;23.314;2023-11-19T01:53:57;2.80;;;2.17;;
70126;SDS011;57491;42.694;23.314;2023-11-19T01:56:25;5.07;;;2.58;;
70126;SDS011;57491;42.694;23.314;2023-11-19T01:58:56;2.97;;;2.40;;
70126;SDS011;57491;42.694;23.314;2023-11-19T02:01:26;4.90;;;2.63;;
70126;SDS011;57491;42.694;23.314;2023-11-19T02:03:55;3.45;;;2.78;;
70126;SDS011;57491;42.694;23.314;2023-11-19T02:06:24;3.53;;;2.50;;
70126;SDS011;57491;42.694;23.314;2023-11-19T02:08:52;3.58;;;2.70;;
70126;SDS011;57491;42.694;23.314;2023-11-19T02:11:19;3.75;;;2.28;;
70126;SDS011;57491;42.694;23.314;2023-11-19T02:13:47;2.33;;;2.13;;
70126;SDS011;57491;42.694;23.314;2023-11-19T02:16:14;3.10;;;2.72;;
70126;SDS011;57491;42.694;23.314;2023-11-19T02:18:43;2.60;;;2.10;;
70126;SDS011;57491;42.694;23.314;2023-11-19T02:21:10;2.95;;;2.50;;
70126;SDS011;57491;42.694;23.314;2023-11-19T02:23:40;3.80;;;2.00;;
70126;SDS011;57491;42.694;23.314;2023-11-19T02:26:12;3.53;;;2.70;;
70126;SDS011;57491;42.694;23.314;2023-11-19T02:28:45;5.43;;;2.42;;
70126;SDS011;57491;42.694;23.314;2023-11-19T02:31:13;3.33;;;2.55;;
70126;SDS011;57491;42.694;23.314;2023-11-19T02:33:40;3.92;;;2.78;;
70126;SDS011;57491;42.694;23.314;2023-11-19T02:36:08;3.85;;;2.63;;
70126;SDS011;57491;42.694;23.314;2023-11-19T02:38:36;3.15;;;2.42;;
70126;SDS011;57491;42.694;23.314;2023-11-19T02:41:04;2.50;;;2.28;;
70126;SDS011;57491;42.694;23.314;2023-11-19T02:43:31;4.20;;;2.80;;
70126;SDS011;57491;42.694;23.314;2023-11-19T02:46:01;3.72;;;3.03;;
70126;SDS011;57491;42.694;23.314;2023-11-19T02:48:32;2.75;;;2.33;;
70126;SDS011;57491;42.694;23.314;2023-11-19T02:51:00;2.58;;;2.38;;
70126;SDS011;57491;42.694;23.314;2023-11-19T02:53:28;2.97;;;2.25;;
70126;SDS011;57491;42.694;23.314;2023-11-19T02:55:56;3.33;;;2.78;;
70126;SDS011;57491;42.694;23.314;2023-11-19T02:58:32;2.78;;;2.22;;
70126;SDS011;57491;42.694;23.314;2023-11-19T03:01:00;5.13;;;3.33;;
70126;SDS011;57491;42.694;23.314;2023-11-19T03:03:38;4.22;;;3.22;;
70126;SDS011;57491;42.694;23.314;2023-11-19T03:06:06;5.47;;;2.70;;
70126;SDS011;57491;42.694;23.314;2023-11-19T03:08:35;4.07;;;2.80;;
70126;SDS011;57491;42.694;23.314;2023-11-19T03:13:30;4.28;;;2.45;;
70126;SDS011;57491;42.694;23.314;2023-11-19T03:15:57;2.25;;;1.98;;
70126;SDS011;57491;42.694;23.314;2023-11-19T03:18:26;3.83;;;2.63;;
70126;SDS011;57491;42.694;23.314;2023-11-19T03:20:54;2.92;;;2.63;;
70126;SDS011;57491;42.694;23.314;2023-11-19T03:23:21;2.90;;;2.57;;
70126;SDS011;57491;42.694;23.314;2023-11-19T03:25:48;4.27;;;2.70;;
70126;SDS011;57491;42.694;23.314;2023-11-19T03:28:15;4.33;;;3.07;;
70126;SDS011;57491;42.694;23.314;2023-11-19T03:30:42;4.03;;;3.13;;
70126;SDS011;57491;42.694;23.314;2023-11-19T03:33:10;2.95;;;2.58;;
70126;SDS011;57491;42.694;23.314;2023-11-19T03:35:39;2.73;;;2.37;;
70126;SDS011;57491;42.694;23.314;2023-11-19T03:38:06;4.13;;;2.92;;
70126;SDS011;57491;42.694;23.314;2023-11-19T03:40:33;3.60;;;2.40;;
70126;SDS011;57491;42.694;23.314;2023-11-19T03:43:01;3.25;;;2.50;;
70126;SDS011;57491;42.694;23.314;2023-11-19T03:45:29;3.47;;;2.50;;
70126;SDS011;57491;42.694;23.314;2023-11-19T03:47:57;3.80;;;2.97;;
70126;SDS011;57491;42.694;23.314;2023-11-19T03:50:24;3.17;;;2.60;;
70126;SDS011;57491;42.694;23.314;2023-11-19T03:52:53;2.43;;;2.13;;
70126;SDS011;57491;42.694;23.314;2023-11-19T03:55:20;4.18;;;2.28;;
70126;SDS011;57491;42.694;23.314;2023-11-19T03:57:47;3.27;;;2.27;;
70126;SDS011;57491;42.694;23.314;2023-11-19T04:00:15;3.97;;;2.67;;
70126;SDS011;57491;42.694;23.314;2023-11-19T04:02:42;3.65;;;2.42;;
70126;SDS011;57491;42.694;23.314;2023-11-19T04:05:10;3.50;;;2.50;;
70126;SDS011;57491;42.694;23.314;2023-11-19T04:07:38;5.40;;;2.50;;
70126;SDS011;57491;42.694;23.314;2023-11-19T04:10:07;4.07;;;2.57;;
70126;SDS011;57491;42.694;23.314;2023-11-19T04:12:35;3.90;;;3.15;;
70126;SDS011;57491;42.694;23.314;2023-11-19T04:15:02;3.00;;;2.38;;
70126;SDS011;57491;42.694;23.314;2023-11-19T04:17:30;5.18;;;2.88;;
70126;SDS011;57491;42.694;23.314;2023-11-19T04:19:58;2.60;;;2.27;;
70126;SDS011;57491;42.694;23.314;2023-11-19T04:22:25;3.88;;;3.10;;
70126;SDS011;57491;42.694;23.314;2023-11-19T04:24:52;4.10;;;2.60;;
70126;SDS011;57491;42.694;23.314;2023-11-19T04:27:21;4.33;;;2.73;;
70126;SDS011;57491;42.694;23.314;2023-11-19T04:29:48;3.13;;;2.70;;
70126;SDS011;57491;42.694;23.314;2023-11-19T04:32:16;4.03;;;2.72;;
70126;SDS011;57491;42.694;23.314;2023-11-19T04:34:43;3.00;;;2.67;;
70126;SDS011;57491;42.694;23.314;2023-11-19T04:37:11;2.80;;;2.38;;
70126;SDS011;57491;42.694;23.314;2023-11-19T04:39:38;3.57;;;3.03;;
70126;SDS011;57491;42.694;23.314;2023-11-19T04:42:05;4.30;;;3.00;;
70126;SDS011;57491;42.694;23.314;2023-11-19T04:44:34;4.68;;;2.95;;
70126;SDS011;57491;42.694;23.314;2023-11-19T04:47:01;3.78;;;3.00;;
70126;SDS011;57491;42.694;23.314;2023-11-19T04:49:29;3.93;;;3.23;;
70126;SDS011;57491;42.694;23.314;2023-11-19T04:51:56;3.53;;;2.95;;
70126;SDS011;57491;42.694;23.314;2023-11-19T04:54:24;4.32;;;2.80;;
70126;SDS011;57491;42.694;23.314;2023-11-19T04:56:51;4.03;;;2.90;;
70126;SDS011;57491;42.694;23.314;2023-11-19T04:59:19;3.70;;;2.63;;
70126;SDS011;57491;42.694;23.314;2023-11-19T05:01:48;4.13;;;2.70;;
70126;SDS011;57491;42.694;23.314;2023-11-19T05:04:16;4.18;;;2.95;;
70126;SDS011;57491;42.694;23.314;2023-11-19T05:06:44;4.30;;;2.95;;
70126;SDS011;57491;42.694;23.314;2023-11-19T05:09:11;3.47;;;2.80;;
70126;SDS011;57491;42.694;23.314;2023-11-19T05:11:39;4.38;;;2.60;;
70126;SDS011;57491;42.694;23.314;2023-11-19T05:14:06;3.00;;;2.60;;
70126;SDS011;57491;42.694;23.314;2023-11-19T05:16:34;3.78;;;2.88;;
70126;SDS011;57491;42.694;23.314;2023-11-19T05:19:03;5.72;;;2.70;;
70126;SDS011;57491;42.694;23.314;2023-11-19T05:21:31;4.18;;;2.67;;
70126;SDS011;57491;42.694;23.314;2023-11-19T05:23:58;4.53;;;3.33;;
70126;SDS011;57491;42.694;23.314;2023-11-19T05:26:25;3.47;;;2.30;;
70126;SDS011;57491;42.694;23.314;2023-11-19T05:28:52;4.97;;;2.72;;
70126;SDS011;57491;42.694;23.314;2023-11-19T05:31:20;4.33;;;3.40;;
70126;SDS011;57491;42.694;23.314;2023-11-19T05:33:47;3.25;;;2.80;;
70126;SDS011;57491;42.694;23.314;2023-11-19T05:36:16;6.15;;;3.20;;
70126;SDS011;57491;42.694;23.314;2023-11-19T05:38:43;4.55;;;3.38;;
70126;SDS011;57491;42.694;23.314;2023-11-19T05:41:11;3.72;;;2.78;;
70126;SDS011;57491;42.694;23.314;2023-11-19T05:43:38;4.93;;;3.50;;
70126;SDS011;57491;42.694;23.314;2023-11-19T05:46:06;5.43;;;3.45;;
70126;SDS011;57491;42.694;23.314;2023-11-19T05:48:34;4.40;;;2.80;;
70126;SDS011;57491;42.694;23.314;2023-11-19T05:51:04;3.50;;;2.53;;
70126;SDS011;57491;42.694;23.314;2023-11-19T05:53:33;5.43;;;3.28;;
70126;SDS011;57491;42.694;23.314;2023-11-19T05:56:00;5.45;;;3.00;;
70126;SDS011;57491;42.694;23.314;2023-11-19T05:58:30;3.53;;;3.05;;
70126;SDS011;57491;42.694;23.314;2023-11-19T06:00:58;4.80;;;3.17;;
70126;SDS011;57491;42.694;23.314;2023-11-19T06:03:27;4.40;;;3.40;;
70126;SDS011;57491;42.694;23.314;2023-11-19T06:05:54;3.42;;;2.90;;
70126;SDS011;57491;42.694;23.314;2023-11-19T06:08:21;3.90;;;3.00;;
70126;SDS011;57491;42.694;23.314;2023-11-19T06:10:50;4.45;;;2.95;;
70126;SDS011;57491;42.694;23.314;2023-11-19T06:13:17;4.10;;;2.80;;
70126;SDS011;57491;42.694;23.314;2023-11-19T06:15:45;3.63;;;2.88;;
70126;SDS011;57491;42.694;23.314;2023-11-19T06:18:12;4.27;;;2.90;;
70126;SDS011;57491;42.694;23.314;2023-11-19T06:20:40;3.42;;;2.92;;
70126;SDS011;57491;42.694;23.314;2023-11-19T06:23:07;4.50;;;3.13;;
70126;SDS011;57491;42.694;23.314;2023-11-19T06:25:35;5.70;;;3.20;;
70126;SDS011;57491;42.694;23.314;2023-11-19T06:28:03;3.37;;;2.80;;
70126;SDS011;57491;42.694;23.314;2023-11-19T06:30:31;5.05;;;3.17;;
70126;SDS011;57491;42.694;23.314;2023-11-19T06:32:58;4.03;;;3.40;;
70126;SDS011;57491;42.694;23.314;2023-11-19T06:35:25;16.17;;;2.97;;
70126;SDS011;57491;42.694;23.314;2023-11-19T06:37:54;4.15;;;3.28;;
70126;SDS011;57491;42.694;23.314;2023-11-19T06:40:21;3.50;;;2.95;;
70126;SDS011;57491;42.694;23.314;2023-11-19T06:42:49;4.10;;;3.70;;
70126;SDS011;57491;42.694;23.314;2023-11-19T06:45:31;4.90;;;3.45;;
70126;SDS011;57491;42.694;23.314;2023-11-19T06:48:00;5.45;;;3.72;;
70126;SDS011;57491;42.694;23.314;2023-11-19T06:50:31;6.18;;;3.65;;
70126;SDS011;57491;42.694;23.314;2023-11-19T06:52:59;6.40;;;3.30;;
70126;SDS011;57491;42.694;23.314;2023-11-19T06:55:26;3.90;;;3.07;;
70126;SDS011;57491;42.694;23.314;2023-11-19T06:57:54;3.80;;;2.75;;
70126;SDS011;57491;42.694;23.314;2023-11-19T07:00:22;3.60;;;2.70;;
70126;SDS011;57491;42.694;23.314;2023-11-19T07:02:49;4.15;;;2.72;;
70126;SDS011;57491;42.694;23.314;2023-11-19T07:05:17;5.80;;;3.47;;
70126;SDS011;57491;42.694;23.314;2023-11-19T07:07:44;4.57;;;3.42;;
70126;SDS011;57491;42.694;23.314;2023-11-19T07:10:12;4.93;;;3.20;;
70126;SDS011;57491;42.694;23.314;2023-11-19T07:12:39;4.63;;;3.13;;
70126;SDS011;57491;42.694;23.314;2023-11-19T07:17:38;4.60;;;3.05;;
70126;SDS011;57491;42.694;23.314;2023-11-19T07:20:05;5.30;;;3.40;;
70126;SDS011;57491;42.694;23.314;2023-11-19T07:22:33;5.40;;;3.15;;
70126;SDS011;57491;42.694;23.314;2023-11-19T07:25:00;4.73;;;3.80;;
70126;SDS011;57491;42.694;23.314;2023-11-19T07:27:27;3.58;;;3.05;;
70126;SDS011;57491;42.694;23.314;2023-11-19T07:29:55;3.55;;;2.75;;
70126;SDS011;57491;42.694;23.314;2023-11-19T07:32:23;6.78;;;3.42;;
70126;SDS011;57491;42.694;23.314;2023-11-19T07:34:52;5.30;;;3.43;;
70126;SDS011;57491;42.694;23.314;2023-11-19T07:37:19;5.60;;;3.92;;
70126;SDS011;57491;42.694;23.314;2023-11-19T07:39:48;3.95;;;3.40;;
70126;SDS011;57491;42.694;23.314;2023-11-19T07:42:17;7.80;;;3.40;;
70126;SDS011;57491;42.694;23.314;2023-11-19T07:44:44;4.83;;;3.63;;
70126;SDS011;57491;42.694;23.314;2023-11-19T07:47:11;4.47;;;3.30;;
70126;SDS011;57491;42.694;23.314;2023-11-19T07:49:39;3.53;;;3.10;;
70126;SDS011;57491;42.694;23.314;2023-11-19T07:52:11;3.80;;;3.17;;
70126;SDS011;57491;42.694;23.314;2023-11-19T07:54:38;9.93;;;3.42;;
70126;SDS011;57491;42.694;23.314;2023-11-19T07:57:05;6.13;;;3.65;;
70126;SDS011;57491;42.694;23.314;2023-11-19T07:59:32;4.77;;;2.70;;
70126;SDS011;57491;42.694;23.314;2023-11-19T08:04:27;4.22;;;3.30;;
70126;SDS011;57491;42.694;23.314;2023-11-19T08:06:54;4.93;;;3.05;;
70126;SDS011;57491;42.694;23.314;2023-11-19T08:09:23;4.05;;;3.65;;
70126;SDS011;57491;42.694;23.314;2023-11-19T08:11:50;3.95;;;3.55;;
70126;SDS011;57491;42.694;23.314;2023-11-19T08:14:18;3.63;;;2.70;;
70126;SDS011;57491;42.694;23.314;2023-11-19T08:16:45;3.93;;;2.83;;
70126;SDS011;57491;42.694;23.314;2023-11-19T08:22:01;7.25;;;4.00;;
70126;SDS011;57491;42.694;23.314;2023-11-19T08:24:31;6.32;;;3.95;;
70126;SDS011;57491;42.694;23.314;2023-11-19T08:26:58;4.95;;;3.95;;
70126;SDS011;57491;42.694;23.314;2023-11-19T08:29:25;3.37;;;2.97;;
70126;SDS011;57491;42.694;23.314;2023-11-19T08:31:53;5.30;;;3.70;;
70126;SDS011;57491;42.694;23.314;2023-11-19T08:34:20;5.10;;;3.40;;
70126;SDS011;57491;42.694;23.314;2023-11-19T08:36:49;5.30;;;4.33;;
70126;SDS011;57491;42.694;23.314;2023-11-19T08:39:19;5.97;;;3.35;;
70126;SDS011;57491;42.694;23.314;2023-11-19T08:41:48;4.20;;;3.47;;
70126;SDS011;57491;42.694;23.314;2023-11-19T08:44:15;5.28;;;3.70;;
70126;SDS011;57491;42.694;23.314;2023-11-19T08:46:48;5.18;;;3.63;;
70126;SDS011;57491;42.694;23.314;2023-11-19T08:49:15;4.78;;;3.50;;
70126;SDS011;57491;42.694;23.314;2023-11-19T08:51:42;5.03;;;3.07;;
70126;SDS011;57491;42.694;23.314;2023-11-19T08:54:10;3.47;;;2.95;;
70126;SDS011;57491;42.694;23.314;2023-11-19T08:56:38;4.07;;;2.78;;
70126;SDS011;57491;42.694;23.314;2023-11-19T08:59:07;3.92;;;3.42;;
70126;SDS011;57491;42.694;23.314;2023-11-19T09:01:35;3.90;;;3.10;;
70126;SDS011;57491;42.694;23.314;2023-11-19T09:04:02;5.53;;;3.50;;
70126;SDS011;57491;42.694;23.314;2023-11-19T09:06:31;4.93;;;3.85;;
70126;SDS011;57491;42.694;23.314;2023-11-19T09:08:59;4.77;;;3.23;;
70126;SDS011;57491;42.694;23.314;2023-11-19T09:11:28;7.78;;;3.80;;
70126;SDS011;57491;42.694;23.314;2023-11-19T09:13:55;4.28;;;3.80;;
70126;SDS011;57491;42.694;23.314;2023-11-19T09:16:24;4.77;;;3.57;;
70126;SDS011;57491;42.694;23.314;2023-11-19T09:18:51;5.03;;;3.00;;
70126;SDS011;57491;42.694;23.314;2023-11-19T09:21:19;3.83;;;3.30;;
70126;SDS011;57491;42.694;23.314;2023-11-19T09:23:46;4.80;;;3.30;;
70126;SDS011;57491;42.694;23.314;2023-11-19T09:26:14;6.10;;;3.95;;
70126;SDS011;57491;42.694;23.314;2023-11-19T09:28:41;4.53;;;3.13;;
70126;SDS011;57491;42.694;23.314;2023-11-19T09:31:15;4.55;;;3.38;;
70126;SDS011;57491;42.694;23.314;2023-11-19T09:33:44;5.43;;;3.85;;
70126;SDS011;57491;42.694;23.314;2023-11-19T09:36:12;6.15;;;4.07;;
70126;SDS011;57491;42.694;23.314;2023-11-19T09:41:07;7.40;;;4.10;;
70126;SDS011;57491;42.694;23.314;2023-11-19T09:43:35;8.73;;;4.47;;
70126;SDS011;57491;42.694;23.314;2023-11-19T09:46:04;6.00;;;3.80;;
70126;SDS011;57491;42.694;23.314;2023-11-19T09:48:33;5.53;;;4.18;;
70126;SDS011;57491;42.694;23.314;2023-11-19T09:51:04;6.18;;;3.78;;
70126;SDS011;57491;42.694;23.314;2023-11-19T09:53:32;5.25;;;3.53;;
70126;SDS011;57491;42.694;23.314;2023-11-19T09:58:29;3.63;;;2.47;;
70126;SDS011;57491;42.694;23.314;2023-11-19T10:00:57;4.43;;;3.17;;
70126;SDS011;57491;42.694;23.314;2023-11-19T10:05:53;3.10;;;2.80;;
70126;SDS011;57491;42.694;23.314;2023-11-19T10:08:23;4.53;;;3.50;;
70126;SDS011;57491;42.694;23.314;2023-11-19T10:10:51;3.72;;;3.20;;
70126;SDS011;57491;42.694;23.314;2023-11-19T10:13:18;4.32;;;3.33;;
70126;SDS011;57491;42.694;23.314;2023-11-19T10:15:45;7.57;;;4.07;;
70126;SDS011;57491;42.694;23.314;2023-11-19T10:18:15;7.00;;;4.40;;
70126;SDS011;57491;42.694;23.314;2023-11-19T10:20:42;4.37;;;3.30;;
70126;SDS011;57491;42.694;23.314;2023-11-19T10:23:10;6.03;;;4.07;;
70126;SDS011;57491;42.694;23.314;2023-11-19T10:25:39;5.10;;;3.35;;
70126;SDS011;57491;42.694;23.314;2023-11-19T10:28:06;6.22;;;4.00;;
70126;SDS011;57491;42.694;23.314;2023-11-19T10:30:33;4.10;;;3.37;;
70126;SDS011;57491;42.694;23.314;2023-11-19T10:33:04;3.70;;;3.25;;
70126;SDS011;57491;42.694;23.314;2023-11-19T10:35:33;6.40;;;4.10;;
70126;SDS011;57491;42.694;23.314;2023-11-19T10:38:01;4.75;;;3.97;;
70126;SDS011;57491;42.694;23.314;2023-11-19T10:40:41;4.93;;;3.90;;
70126;SDS011;57491;42.694;23.314;2023-11-19T10:43:08;4.68;;;3.35;;
70126;SDS011;57491;42.694;23.314;2023-11-19T10:45:36;4.88;;;3.33;;
70126;SDS011;57491;42.694;23.314;2023-11-19T10:48:07;3.80;;;3.35;;
70126;SDS011;57491;42.694;23.314;2023-11-19T10:50:35;3.50;;;2.80;;
70126;SDS011;57491;42.694;23.314;2023-11-19T10:53:04;2.95;;;2.42;;
70126;SDS011;57491;42.694;23.314;2023-11-19T10:58:02;4.43;;;3.47;;
70126;SDS011;57491;42.694;23.314;2023-11-19T11:00:34;4.30;;;2.90;;
70126;SDS011;57491;42.694;23.314;2023-11-19T11:03:08;4.88;;;3.10;;
70126;SDS011;57491;42.694;23.314;2023-11-19T11:05:38;3.30;;;2.97;;
70126;SDS011;57491;42.694;23.314;2023-11-19T11:08:07;5.28;;;3.38;;
70126;SDS011;57491;42.694;23.314;2023-11-19T11:10:36;4.07;;;3.08;;
70126;SDS011;57491;42.694;23.314;2023-11-19T11:13:11;5.80;;;3.10;;
70126;SDS011;57491;42.694;23.314;2023-11-19T11:15:45;4.10;;;2.80;;
70126;SDS011;57491;42.694;23.314;2023-11-19T11:18:17;4.85;;;2.88;;
70126;SDS011;57491;42.694;23.314;2023-11-19T11:20:54;3.30;;;2.40;;
70126;SDS011;57491;42.694;23.314;2023-11-19T11:26:28;2.23;;;2.00;;
70126;SDS011;57491;42.694;23.314;2023-11-19T11:29:24;3.28;;;2.63;;
70126;SDS011;57491;42.694;23.314;2023-11-19T11:32:00;2.70;;;2.50;;
70126;SDS011;57491;42.694;23.314;2023-11-19T11:34:42;2.45;;;2.25;;
70126;SDS011;57491;42.694;23.314;2023-11-19T11:37:31;2.30;;;2.10;;
70126;SDS011;57491;42.694;23.314;2023-11-19T11:40:34;3.40;;;2.55;;
70126;SDS011;57491;42.694;23.314;2023-11-19T11:43:09;3.00;;;1.90;;
70126;SDS011;57491;42.694;23.314;2023-11-19T11:46:22;3.83;;;3.53;;
70126;SDS011;57491;42.694;23.314;2023-11-19T11:49:26;3.95;;;2.28;;
70126;SDS011;57491;42.694;23.314;2023-11-19T11:52:04;2.13;;;1.92;;
70126;SDS011;57491;42.694;23.314;2023-11-19T11:54:39;3.03;;;2.50;;
70126;SDS011;57491;42.694;23.314;2023-11-19T11:57:11;4.65;;;3.13;;
70126;SDS011;57491;42.694;23.314;2023-11-19T11:59:46;2.22;;;2.03;;
70126;SDS011;57491;42.694;23.314;2023-11-19T12:02:15;2.90;;;2.60;;
70126;SDS011;57491;42.694;23.314;2023-11-19T12:04:46;3.03;;;2.80;;
70126;SDS011;57491;42.694;23.314;2023-11-19T12:07:16;2.65;;;2.45;;
70126;SDS011;57491;42.694;23.314;2023-11-19T12:09:49;3.03;;;2.72;;
70126;SDS011;57491;42.694;23.314;2023-11-19T12:12:21;2.90;;;2.60;;
70126;SDS011;57491;42.694;23.314;2023-11-19T12:17:42;3.08;;;2.78;;
70126;SDS011;57491;42.694;23.314;2023-11-19T12:20:17;4.53;;;3.13;;
70126;SDS011;57491;42.694;23.314;2023-11-19T12:22:46;2.90;;;2.60;;
70126;SDS011;57491;42.694;23.314;2023-11-19T12:25:15;3.20;;;2.90;;
70126;SDS011;57491;42.694;23.314;2023-11-19T12:27:46;3.80;;;2.90;;
70126;SDS011;57491;42.694;23.314;2023-11-19T12:30:17;3.40;;;3.10;;
70126;SDS011;57491;42.694;23.314;2023-11-19T12:32:46;3.13;;;2.83;;
70126;SDS011;57491;42.694;23.314;2023-11-19T12:35:17;3.35;;;2.85;;
70126;SDS011;57491;42.694;23.314;2023-11-19T12:37:50;3.60;;;3.10;;
70126;SDS011;57491;42.694;23.314;2023-11-19T12:40:18;3.03;;;2.78;;
70126;SDS011;57491;42.694;23.314;2023-11-19T12:42:47;3.70;;;3.40;;
70126;SDS011;57491;42.694;23.314;2023-11-19T12:45:18;4.68;;;3.30;;
70126;SDS011;57491;42.694;23.314;2023-11-19T12:47:51;3.13;;;2.92;;
70126;SDS011;57491;42.694;23.314;2023-11-19T12:53:20;4.18;;;3.33;;
70126;SDS011;57491;42.694;23.314;2023-11-19T12:55:48;3.67;;;3.05;;
70126;SDS011;57491;42.694;23.314;2023-11-19T12:58:29;3.35;;;3.00;;
70126;SDS011;57491;42.694;23.314;2023-11-19T13:01:00;3.08;;;2.75;;
70126;SDS011;57491;42.694;23.314;2023-11-19T13:03:30;4.80;;;3.05;;
70126;SDS011;57491;42.694;23.314;2023-11-19T13:06:01;4.30;;;3.58;;
70126;SDS011;57491;42.694;23.314;2023-11-19T13:08:35;3.95;;;3.65;;
70126;SDS011;57491;42.694;23.314;2023-11-19T13:11:06;4.82;;;3.35;;
70126;SDS011;57491;42.694;23.314;2023-11-19T13:16:23;3.72;;;3.33;;
70126;SDS011;57491;42.694;23.314;2023-11-19T13:18:52;4.40;;;4.00;;
70126;SDS011;57491;42.694;23.314;2023-11-19T13:21:20;4.00;;;3.70;;
70126;SDS011;57491;42.694;23.314;2023-11-19T13:23:47;6.43;;;3.75;;
70126;SDS011;57491;42.694;23.314;2023-11-19T13:28:41;4.30;;;3.30;;
70126;SDS011;57491;42.694;23.314;2023-11-19T13:33:36;3.72;;;3.25;;
70126;SDS011;57491;42.694;23.314;2023-11-19T13:38:33;5.43;;;3.85;;
70126;SDS011;57491;42.694;23.314;2023-11-19T13:43:28;4.50;;;3.35;;
70126;SDS011;57491;42.694;23.314;2023-11-19T13:45:55;4.18;;;3.60;;
70126;SDS011;57491;42.694;23.314;2023-11-19T13:48:23;4.40;;;3.03;;
70126;SDS011;57491;42.694;23.314;2023-11-19T13:50:52;4.13;;;3.67;;
70126;SDS011;57491;42.694;23.314;2023-11-19T13:53:21;3.95;;;3.05;;
70126;SDS011;57491;42.694;23.314;2023-11-19T13:55:48;4.07;;;3.17;;
70126;SDS011;57491;42.694;23.314;2023-11-19T13:58:15;6.15;;;3.88;;
70126;SDS011;57491;42.694;23.314;2023-11-19T14:00:43;4.03;;;3.30;;
70126;SDS011;57491;42.694;23.314;2023-11-19T14:03:10;4.38;;;3.13;;
70126;SDS011;57491;42.694;23.314;2023-11-19T14:05:37;4.45;;;3.13;;
70126;SDS011;57491;42.694;23.314;2023-11-19T14:08:06;4.47;;;2.80;;
70126;SDS011;57491;42.694;23.314;2023-11-19T14:10:40;3.92;;;3.25;;
70126;SDS011;57491;42.694;23.314;2023-11-19T14:13:08;3.78;;;3.25;;
70126;SDS011;57491;42.694;23.314;2023-11-19T14:15:37;4.88;;;3.03;;
70126;SDS011;57491;42.694;23.314;2023-11-19T14:18:04;4.33;;;3.13;;
70126;SDS011;57491;42.694;23.314;2023-11-19T14:20:31;5.43;;;3.53;;
70126;SDS011;57491;42.694;23.314;2023-11-19T14:22:58;6.10;;;3.63;;
70126;SDS011;57491;42.694;23.314;2023-11-19T14:25:25;5.40;;;4.03;;
70126;SDS011;57491;42.694;23.314;2023-11-19T14:27:54;5.43;;;3.85;;
70126;SDS011;57491;42.694;23.314;2023-11-19T14:30:21;5.68;;;3.55;;
70126;SDS011;57491;42.694;23.314;2023-11-19T14:32:48;6.43;;;3.40;;
70126;SDS011;57491;42.694;23.314;2023-11-19T14:35:16;6.17;;;4.17;;
70126;SDS011;57491;42.694;23.314;2023-11-19T14:37:43;6.00;;;4.10;;
70126;SDS011;57491;42.694;23.314;2023-11-19T14:40:10;9.23;;;5.68;;
70126;SDS011;57491;42.694;23.314;2023-11-19T14:42:38;5.72;;;3.72;;
70126;SDS011;57491;42.694;23.314;2023-11-19T14:45:07;7.30;;;3.67;;
70126;SDS011;57491;42.694;23.314;2023-11-19T14:47:37;7.68;;;4.88;;
70126;SDS011;57491;42.694;23.314;2023-11-19T14:50:05;7.07;;;4.85;;
70126;SDS011;57491;42.694;23.314;2023-11-19T14:52:34;9.38;;;4.60;;
70126;SDS011;57491;42.694;23.314;2023-11-19T14:55:02;6.95;;;4.70;;
70126;SDS011;57491;42.694;23.314;2023-11-19T14:57:29;7.63;;;5.00;;
70126;SDS011;57491;42.694;23.314;2023-11-19T14:59:57;12.13;;;6.70;;
70126;SDS011;57491;42.694;23.314;2023-11-19T15:02:26;10.45;;;4.93;;
70126;SDS011;57491;42.694;23.314;2023-11-19T15:04:53;7.63;;;5.47;;
70126;SDS011;57491;42.694;23.314;2023-11-19T15:07:21;6.65;;;4.28;;
70126;SDS011;57491;42.694;23.314;2023-11-19T15:09:48;7.53;;;5.50;;
70126;SDS011;57491;42.694;23.314;2023-11-19T15:12:15;7.38;;;5.18;;
70126;SDS011;57491;42.694;23.314;2023-11-19T15:14:42;9.37;;;5.77;;
70126;SDS011;57491;42.694;23.314;2023-11-19T15:17:09;11.00;;;5.80;;
70126;SDS011;57491;42.694;23.314;2023-11-19T15:19:38;9.50;;;5.75;;
70126;SDS011;57491;42.694;23.314;2023-11-19T15:22:06;11.15;;;6.28;;
70126;SDS011;57491;42.694;23.314;2023-11-19T15:24:33;11.30;;;6.53;;
70126;SDS011;57491;42.694;23.314;2023-11-19T15:27:02;9.57;;;6.53;;